sensor_id;sensor_type;location;lat;lon;timestamp;P1;P2;P0
34176;PMS7003;20450;49.074;9.158;2024-02-21T00:00:00;10.50;10.25;7.75
34176;PMS7003;20450;49.074;9.158;2024-02-21T00:02:29;10.25;7.00;5.50
34176;PMS7003;20450;49.074;9.158;2024-02-21T00:04:56;8.25;8.00;6.50
34176;PMS7003;20450;49.074;9.158;2024-02-21T00:07:26;9.75;7.75;6.00
34176;PMS7003;20450;49.074;9.158;2024-02-21T00:09:53;10.00;10.00;8.50
34176;PMS7003;20450;49.074;9.158;2024-02-21T00:12:20;18.25;17.00;12.75
34176;PMS7003;20450;49.074;9.158;2024-02-21T00:14:47;28.50;26.50;18.50
34176;PMS7003;20450;49.074;9.158;2024-02-21T00:17:14;23.75;19.75;14.00
34176;PMS7003;20450;49.074;9.158;2024-02-21T00:19:41;18.00;18.00;15.00
34176;PMS7003;20450;49.074;9.158;2024-02-21T00:22:08;20.50;19.50;14.25
34176;PMS7003;20450;49.074;9.158;2024-02-21T00:24:36;12.00;11.75;9.00
34176;PMS7003;20450;49.074;9.158;2024-02-21T00:27:04;10.00;10.00;8.00
34176;PMS7003;20450;49.074;9.158;2024-02-21T00:29:31;9.25;9.25;6.25
34176;PMS7003;20450;49.074;9.158;2024-02-21T00:31:58;14.50;12.50;8.75
34176;PMS7003;20450;49.074;9.158;2024-02-21T00:34:25;11.50;8.00;6.50
34176;PMS7003;20450;49.074;9.158;2024-02-21T00:36:55;10.25;9.25;7.50
34176;PMS7003;20450;49.074;9.158;2024-02-21T00:39:22;10.00;7.75;6.25
34176;PMS7003;20450;49.074;9.158;2024-02-21T00:41:50;7.00;7.00;6.25
34176;PMS7003;20450;49.074;9.158;2024-02-21T00:44:17;6.50;6.50;4.25
34176;PMS7003;20450;49.074;9.158;2024-02-21T00:46:44;8.50;8.00;6.00
34176;PMS7003;20450;49.074;9.158;2024-02-21T00:49:11;9.75;7.25;6.00
34176;PMS7003;20450;49.074;9.158;2024-02-21T00:51:40;9.00;8.25;5.75
34176;PMS7003;20450;49.074;9.158;2024-02-21T00:54:07;7.25;7.25;6.75
34176;PMS7003;20450;49.074;9.158;2024-02-21T00:56:34;9.25;6.25;5.50
34176;PMS7003;20450;49.074;9.158;2024-02-21T00:59:02;8.25;7.00;5.25
34176;PMS7003;20450;49.074;9.158;2024-02-21T01:01:29;7.50;7.50;6.75
34176;PMS7003;20450;49.074;9.158;2024-02-21T01:03:56;9.00;6.50;6.00
34176;PMS7003;20450;49.074;9.158;2024-02-21T01:06:24;8.00;6.50;6.00
34176;PMS7003;20450;49.074;9.158;2024-02-21T01:08:55;9.50;7.00;5.75
34176;PMS7003;20450;49.074;9.158;2024-02-21T01:11:22;10.50;10.50;8.00
34176;PMS7003;20450;49.074;9.158;2024-02-21T01:13:49;6.25;6.00;5.00
34176;PMS7003;20450;49.074;9.158;2024-02-21T01:16:20;8.00;8.00;6.75
34176;PMS7003;20450;49.074;9.158;2024-02-21T01:18:47;6.25;6.25;5.75
34176;PMS7003;20450;49.074;9.158;2024-02-21T01:21:14;3.25;3.25;2.00
34176;PMS7003;20450;49.074;9.158;2024-02-21T01:23:40;7.00;7.00;6.00
34176;PMS7003;20450;49.074;9.158;2024-02-21T01:26:07;11.50;7.25;6.00
34176;PMS7003;20450;49.074;9.158;2024-02-21T01:28:35;7.00;7.00;6.00
34176;PMS7003;20450;49.074;9.158;2024-02-21T01:31:02;7.00;7.00;5.75
34176;PMS7003;20450;49.074;9.158;2024-02-21T01:33:30;7.25;7.25;5.75
34176;PMS7003;20450;49.074;9.158;2024-02-21T01:35:58;4.50;3.00;1.00
34176;PMS7003;20450;49.074;9.158;2024-02-21T01:38:25;7.25;6.50;4.75
34176;PMS7003;20450;49.074;9.158;2024-02-21T01:40:52;5.75;4.50;2.00
34176;PMS7003;20450;49.074;9.158;2024-02-21T01:43:19;5.25;5.25;4.50
34176;PMS7003;20450;49.074;9.158;2024-02-21T01:45:48;5.75;5.00;4.00
34176;PMS7003;20450;49.074;9.158;2024-02-21T01:48:18;6.25;6.25;4.75
34176;PMS7003;20450;49.074;9.158;2024-02-21T01:50:48;8.00;7.00;6.00
34176;PMS7003;20450;49.074;9.158;2024-02-21T01:53:16;7.00;6.50;5.25
34176;PMS7003;20450;49.074;9.158;2024-02-21T01:55:47;10.00;8.00;6.75
34176;PMS7003;20450;49.074;9.158;2024-02-21T01:58:16;8.25;7.00;5.75
34176;PMS7003;20450;49.074;9.158;2024-02-21T02:00:45;11.50;5.50;4.25
34176;PMS7003;20450;49.074;9.158;2024-02-21T02:03:14;5.75;5.75;4.00
34176;PMS7003;20450;49.074;9.158;2024-02-21T02:05:41;6.25;6.25;5.00
34176;PMS7003;20450;49.074;9.158;2024-02-21T02:08:11;6.25;6.25;5.50
34176;PMS7003;20450;49.074;9.158;2024-02-21T02:10:39;7.00;5.75;5.00
34176;PMS7003;20450;49.074;9.158;2024-02-21T02:13:07;6.75;6.75;3.50
34176;PMS7003;20450;49.074;9.158;2024-02-21T02:15:38;7.00;7.00;5.25
34176;PMS7003;20450;49.074;9.158;2024-02-21T02:18:06;8.25;6.50;4.50
34176;PMS7003;20450;49.074;9.158;2024-02-21T02:20:35;5.75;5.75;4.75
34176;PMS7003;20450;49.074;9.158;2024-02-21T02:23:03;6.50;6.50;5.00
34176;PMS7003;20450;49.074;9.158;2024-02-21T02:25:37;3.00;3.00;3.00
34176;PMS7003;20450;49.074;9.158;2024-02-21T02:28:06;3.75;3.00;2.50
34176;PMS7003;20450;49.074;9.158;2024-02-21T02:30:34;4.00;3.00;1.00
34176;PMS7003;20450;49.074;9.158;2024-02-21T02:33:02;7.50;3.00;1.00
34176;PMS7003;20450;49.074;9.158;2024-02-21T02:35:30;0.00;0.00;0.00
34176;PMS7003;20450;49.074;9.158;2024-02-21T02:37:57;5.25;5.25;4.25
34176;PMS7003;20450;49.074;9.158;2024-02-21T02:40:25;6.75;6.75;6.00
34176;PMS7003;20450;49.074;9.158;2024-02-21T02:42:53;7.00;7.00;5.75
34176;PMS7003;20450;49.074;9.158;2024-02-21T02:45:20;8.00;7.00;5.50
34176;PMS7003;20450;49.074;9.158;2024-02-21T02:47:49;3.00;3.00;1.50
34176;PMS7003;20450;49.074;9.158;2024-02-21T02:50:16;8.00;6.00;5.00
34176;PMS7003;20450;49.074;9.158;2024-02-21T02:52:43;7.00;5.50;5.00
34176;PMS7003;20450;49.074;9.158;2024-02-21T02:55:10;5.00;3.75;3.00
34176;PMS7003;20450;49.074;9.158;2024-02-21T02:57:37;5.75;5.00;5.00
34176;PMS7003;20450;49.074;9.158;2024-02-21T03:00:06;7.50;6.75;4.50
34176;PMS7003;20450;49.074;9.158;2024-02-21T03:02:35;7.00;7.00;5.00
34176;PMS7003;20450;49.074;9.158;2024-02-21T03:05:02;6.00;5.00;4.00
34176;PMS7003;20450;49.074;9.158;2024-02-21T03:07:39;5.25;5.25;4.00
34176;PMS7003;20450;49.074;9.158;2024-02-21T03:10:07;5.50;5.00;4.25
34176;PMS7003;20450;49.074;9.158;2024-02-21T03:12:36;7.00;7.00;5.00
34176;PMS7003;20450;49.074;9.158;2024-02-21T03:15:03;7.50;5.25;4.75
34176;PMS7003;20450;49.074;9.158;2024-02-21T03:17:33;4.75;4.00;4.00
34176;PMS7003;20450;49.074;9.158;2024-02-21T03:20:01;8.00;7.25;5.50
34176;PMS7003;20450;49.074;9.158;2024-02-21T03:22:28;5.75;5.00;4.00
34176;PMS7003;20450;49.074;9.158;2024-02-21T03:24:55;5.00;5.00;3.25
34176;PMS7003;20450;49.074;9.158;2024-02-21T03:27:22;10.75;7.25;5.00
34176;PMS7003;20450;49.074;9.158;2024-02-21T03:29:49;5.00;4.25;3.25
34176;PMS7003;20450;49.074;9.158;2024-02-21T03:32:19;5.50;5.50;4.00
34176;PMS7003;20450;49.074;9.158;2024-02-21T03:34:47;8.50;5.00;4.00
34176;PMS7003;20450;49.074;9.158;2024-02-21T03:37:14;6.00;6.00;4.75
34176;PMS7003;20450;49.074;9.158;2024-02-21T03:39:41;6.00;6.00;5.00
34176;PMS7003;20450;49.074;9.158;2024-02-21T03:42:08;5.25;5.00;3.75
34176;PMS7003;20450;49.074;9.158;2024-02-21T03:44:36;4.50;4.50;4.00
34176;PMS7003;20450;49.074;9.158;2024-02-21T03:47:03;8.25;7.00;5.75
34176;PMS7003;20450;49.074;9.158;2024-02-21T03:49:32;5.25;5.25;5.00
34176;PMS7003;20450;49.074;9.158;2024-02-21T03:51:59;6.75;5.75;4.50
34176;PMS7003;20450;49.074;9.158;2024-02-21T03:54:25;4.50;4.25;3.00
34176;PMS7003;20450;49.074;9.158;2024-02-21T03:56:53;5.00;4.50;3.00
34176;PMS7003;20450;49.074;9.158;2024-02-21T03:59:20;7.00;4.25;3.00
34176;PMS7003;20450;49.074;9.158;2024-02-21T04:01:47;3.25;3.25;3.00
34176;PMS7003;20450;49.074;9.158;2024-02-21T04:04:18;4.25;3.25;3.00
34176;PMS7003;20450;49.074;9.158;2024-02-21T04:06:47;5.25;5.25;4.00
34176;PMS7003;20450;49.074;9.158;2024-02-21T04:09:23;3.00;3.00;2.25
34176;PMS7003;20450;49.074;9.158;2024-02-21T04:11:50;4.50;4.50;3.75
34176;PMS7003;20450;49.074;9.158;2024-02-21T04:14:17;5.50;4.00;3.00
34176;PMS7003;20450;49.074;9.158;2024-02-21T04:16:44;5.00;5.00;3.75
34176;PMS7003;20450;49.074;9.158;2024-02-21T04:19:12;6.00;6.00;5.00
34176;PMS7003;20450;49.074;9.158;2024-02-21T04:21:40;8.25;5.25;3.75
34176;PMS7003;20450;49.074;9.158;2024-02-21T04:24:08;8.75;5.00;3.50
34176;PMS7003;20450;49.074;9.158;2024-02-21T04:26:35;5.00;5.00;4.00
34176;PMS7003;20450;49.074;9.158;2024-02-21T04:29:05;4.50;4.50;2.75
34176;PMS7003;20450;49.074;9.158;2024-02-21T04:31:32;4.75;4.75;3.75
34176;PMS7003;20450;49.074;9.158;2024-02-21T04:33:59;5.25;4.00;4.00
34176;PMS7003;20450;49.074;9.158;2024-02-21T04:36:26;6.50;6.50;5.00
34176;PMS7003;20450;49.074;9.158;2024-02-21T04:38:53;5.75;5.75;4.00
34176;PMS7003;20450;49.074;9.158;2024-02-21T04:41:21;5.25;5.25;3.50
34176;PMS7003;20450;49.074;9.158;2024-02-21T04:43:48;4.00;4.00;3.00
34176;PMS7003;20450;49.074;9.158;2024-02-21T04:46:18;5.25;5.25;4.25
34176;PMS7003;20450;49.074;9.158;2024-02-21T04:48:45;5.00;5.00;4.00
34176;PMS7003;20450;49.074;9.158;2024-02-21T04:51:12;4.25;4.25;4.00
34176;PMS7003;20450;49.074;9.158;2024-02-21T04:53:39;6.00;5.00;4.00
34176;PMS7003;20450;49.074;9.158;2024-02-21T04:56:06;5.00;5.00;4.00
34176;PMS7003;20450;49.074;9.158;2024-02-21T04:58:37;6.00;4.00;3.75
34176;PMS7003;20450;49.074;9.158;2024-02-21T05:01:04;8.75;8.75;5.00
34176;PMS7003;20450;49.074;9.158;2024-02-21T05:03:33;17.25;15.25;11.25
34176;PMS7003;20450;49.074;9.158;2024-02-21T05:06:00;7.00;7.00;5.75
34176;PMS7003;20450;49.074;9.158;2024-02-21T05:08:27;9.50;6.00;5.00
34176;PMS7003;20450;49.074;9.158;2024-02-21T05:10:54;4.00;2.00;2.00
34176;PMS7003;20450;49.074;9.158;2024-02-21T05:13:21;7.25;6.00;5.00
34176;PMS7003;20450;49.074;9.158;2024-02-21T05:15:50;5.75;5.75;5.00
34176;PMS7003;20450;49.074;9.158;2024-02-21T05:18:16;9.00;5.25;4.25
34176;PMS7003;20450;49.074;9.158;2024-02-21T05:20:44;6.25;6.00;4.25
34176;PMS7003;20450;49.074;9.158;2024-02-21T05:23:11;6.25;5.25;4.00
34176;PMS7003;20450;49.074;9.158;2024-02-21T05:25:38;6.25;5.00;4.00
34176;PMS7003;20450;49.074;9.158;2024-02-21T05:28:06;6.25;5.00;5.00
34176;PMS7003;20450;49.074;9.158;2024-02-21T05:30:33;5.50;5.50;4.50
34176;PMS7003;20450;49.074;9.158;2024-02-21T05:33:04;6.50;5.25;4.50
34176;PMS7003;20450;49.074;9.158;2024-02-21T05:35:33;9.75;5.75;5.00
34176;PMS7003;20450;49.074;9.158;2024-02-21T05:38:01;7.75;7.00;5.00
34176;PMS7003;20450;49.074;9.158;2024-02-21T05:40:29;6.25;5.25;4.00
34176;PMS7003;20450;49.074;9.158;2024-02-21T05:42:56;4.75;4.00;4.00
34176;PMS7003;20450;49.074;9.158;2024-02-21T05:45:23;8.25;6.50;5.00
34176;PMS7003;20450;49.074;9.158;2024-02-21T05:47:50;6.00;6.00;5.00
34176;PMS7003;20450;49.074;9.158;2024-02-21T05:50:18;6.00;6.00;4.50
34176;PMS7003;20450;49.074;9.158;2024-02-21T05:52:46;4.50;4.50;4.25
34176;PMS7003;20450;49.074;9.158;2024-02-21T05:55:13;8.50;8.25;6.00
34176;PMS7003;20450;49.074;9.158;2024-02-21T05:57:40;4.00;4.00;3.25
34176;PMS7003;20450;49.074;9.158;2024-02-21T06:00:07;6.50;6.50;5.00
34176;PMS7003;20450;49.074;9.158;2024-02-21T06:02:38;7.00;7.00;5.00
34176;PMS7003;20450;49.074;9.158;2024-02-21T06:05:05;12.25;11.00;9.50
34176;PMS7003;20450;49.074;9.158;2024-02-21T06:07:35;10.00;9.25;7.00
34176;PMS7003;20450;49.074;9.158;2024-02-21T06:10:02;5.25;5.25;4.25
34176;PMS7003;20450;49.074;9.158;2024-02-21T06:12:30;6.50;6.50;5.00
34176;PMS7003;20450;49.074;9.158;2024-02-21T06:14:57;7.75;7.75;5.75
34176;PMS7003;20450;49.074;9.158;2024-02-21T06:17:24;4.50;4.00;3.75
34176;PMS7003;20450;49.074;9.158;2024-02-21T06:19:51;4.00;4.00;4.00
34176;PMS7003;20450;49.074;9.158;2024-02-21T06:22:19;7.25;7.25;5.25
34176;PMS7003;20450;49.074;9.158;2024-02-21T06:24:47;6.00;6.00;5.00
34176;PMS7003;20450;49.074;9.158;2024-02-21T06:27:14;6.25;5.25;5.00
34176;PMS7003;20450;49.074;9.158;2024-02-21T06:29:42;4.00;4.00;3.00
34176;PMS7003;20450;49.074;9.158;2024-02-21T06:32:09;5.50;3.50;3.00
34176;PMS7003;20450;49.074;9.158;2024-02-21T06:34:37;7.75;7.75;5.50
34176;PMS7003;20450;49.074;9.158;2024-02-21T06:37:05;4.50;4.00;3.75
34176;PMS7003;20450;49.074;9.158;2024-02-21T06:39:32;7.00;7.00;4.00
34176;PMS7003;20450;49.074;9.158;2024-02-21T06:42:02;3.00;3.00;0.00
34176;PMS7003;20450;49.074;9.158;2024-02-21T06:44:30;5.50;5.50;4.00
34176;PMS7003;20450;49.074;9.158;2024-02-21T06:46:57;7.50;6.00;4.00
34176;PMS7003;20450;49.074;9.158;2024-02-21T06:49:25;9.00;6.75;5.00
34176;PMS7003;20450;49.074;9.158;2024-02-21T06:51:56;9.75;6.50;6.00
34176;PMS7003;20450;49.074;9.158;2024-02-21T06:54:23;8.75;6.50;5.25
34176;PMS7003;20450;49.074;9.158;2024-02-21T06:56:50;8.25;8.25;6.50
34176;PMS7003;20450;49.074;9.158;2024-02-21T06:59:18;8.75;7.75;5.50
34176;PMS7003;20450;49.074;9.158;2024-02-21T07:01:47;4.00;4.00;4.00
34176;PMS7003;20450;49.074;9.158;2024-02-21T07:04:16;6.25;5.50;4.00
34176;PMS7003;20450;49.074;9.158;2024-02-21T07:06:43;7.00;7.00;5.50
34176;PMS7003;20450;49.074;9.158;2024-02-21T07:09:11;4.50;4.50;3.00
34176;PMS7003;20450;49.074;9.158;2024-02-21T07:11:38;7.25;6.00;5.00
34176;PMS7003;20450;49.074;9.158;2024-02-21T07:14:05;5.00;5.00;4.00
34176;PMS7003;20450;49.074;9.158;2024-02-21T07:16:33;5.00;5.00;4.50
34176;PMS7003;20450;49.074;9.158;2024-02-21T07:19:01;5.00;5.00;4.75
34176;PMS7003;20450;49.074;9.158;2024-02-21T07:21:28;5.00;5.00;4.75
34176;PMS7003;20450;49.074;9.158;2024-02-21T07:23:55;4.75;3.75;3.00
34176;PMS7003;20450;49.074;9.158;2024-02-21T07:26:23;3.00;3.00;3.00
34176;PMS7003;20450;49.074;9.158;2024-02-21T07:28:51;9.50;7.50;6.00
34176;PMS7003;20450;49.074;9.158;2024-02-21T07:31:18;13.50;12.00;7.00
34176;PMS7003;20450;49.074;9.158;2024-02-21T07:33:47;10.67;9.33;6.33
34176;PMS7003;20450;49.074;9.158;2024-02-21T07:36:25;14.00;11.33;9.33
34176;PMS7003;20450;49.074;9.158;2024-02-21T07:39:07;8.25;6.00;4.00
34176;PMS7003;20450;49.074;9.158;2024-02-21T07:41:35;4.50;3.75;3.00
34176;PMS7003;20450;49.074;9.158;2024-02-21T07:44:02;4.00;4.00;4.00
34176;PMS7003;20450;49.074;9.158;2024-02-21T07:46:32;5.00;5.00;3.75
34176;PMS7003;20450;49.074;9.158;2024-02-21T07:49:01;5.67;5.67;4.33
34176;PMS7003;20450;49.074;9.158;2024-02-21T07:51:28;5.33;4.00;3.33
34176;PMS7003;20450;49.074;9.158;2024-02-21T07:53:55;4.00;4.00;3.33
34176;PMS7003;20450;49.074;9.158;2024-02-21T07:56:22;3.00;3.00;1.00
34176;PMS7003;20450;49.074;9.158;2024-02-21T07:58:57;4.00;2.33;2.33
34176;PMS7003;20450;49.074;9.158;2024-02-21T08:01:24;5.33;4.00;4.00
34176;PMS7003;20450;49.074;9.158;2024-02-21T08:03:52;3.75;3.25;3.00
34176;PMS7003;20450;49.074;9.158;2024-02-21T08:06:21;6.00;4.00;3.75
34176;PMS7003;20450;49.074;9.158;2024-02-21T08:08:49;6.00;6.00;5.00
34176;PMS7003;20450;49.074;9.158;2024-02-21T08:11:16;4.00;3.00;3.00
34176;PMS7003;20450;49.074;9.158;2024-02-21T08:13:43;4.00;4.00;3.00
34176;PMS7003;20450;49.074;9.158;2024-02-21T08:16:10;3.50;2.50;1.00
34176;PMS7003;20450;49.074;9.158;2024-02-21T08:18:37;5.33;3.67;3.00
34176;PMS7003;20450;49.074;9.158;2024-02-21T08:21:05;7.00;6.00;4.00
34176;PMS7003;20450;49.074;9.158;2024-02-21T08:23:33;2.33;2.33;1.00
34176;PMS7003;20450;49.074;9.158;2024-02-21T08:26:02;4.00;3.00;3.00
34176;PMS7003;20450;49.074;9.158;2024-02-21T08:28:29;3.33;3.33;3.00
34176;PMS7003;20450;49.074;9.158;2024-02-21T08:30:58;4.67;3.00;3.00
34176;PMS7003;20450;49.074;9.158;2024-02-21T08:33:25;3.67;3.00;3.00
34176;PMS7003;20450;49.074;9.158;2024-02-21T08:35:52;2.33;2.33;1.67
34176;PMS7003;20450;49.074;9.158;2024-02-21T08:38:20;2.00;2.00;1.00
34176;PMS7003;20450;49.074;9.158;2024-02-21T08:40:48;8.25;5.50;3.75
34176;PMS7003;20450;49.074;9.158;2024-02-21T08:43:15;1.00;1.00;1.00
34176;PMS7003;20450;49.074;9.158;2024-02-21T08:45:42;1.00;1.00;1.00
34176;PMS7003;20450;49.074;9.158;2024-02-21T08:48:09;3.00;3.00;3.00
34176;PMS7003;20450;49.074;9.158;2024-02-21T08:50:36;3.50;3.00;3.00
34176;PMS7003;20450;49.074;9.158;2024-02-21T08:53:04;3.50;2.00;0.50
34176;PMS7003;20450;49.074;9.158;2024-02-21T08:55:30;3.00;1.00;0.33
34176;PMS7003;20450;49.074;9.158;2024-02-21T08:57:59;2.25;1.50;1.00
34176;PMS7003;20450;49.074;9.158;2024-02-21T09:00:27;2.00;2.00;1.00
34176;PMS7003;20450;49.074;9.158;2024-02-21T09:02:55;3.00;1.00;0.75
34176;PMS7003;20450;49.074;9.158;2024-02-21T09:05:23;3.25;1.00;1.00
34176;PMS7003;20450;49.074;9.158;2024-02-21T09:07:50;4.00;2.50;2.00
34176;PMS7003;20450;49.074;9.158;2024-02-21T09:10:18;4.50;4.50;4.00
34176;PMS7003;20450;49.074;9.158;2024-02-21T09:12:45;3.00;3.00;3.00
34176;PMS7003;20450;49.074;9.158;2024-02-21T09:15:13;1.00;1.00;1.00
34176;PMS7003;20450;49.074;9.158;2024-02-21T09:17:40;3.00;3.00;1.00
34176;PMS7003;20450;49.074;9.158;2024-02-21T09:20:07;2.00;0.25;0.25
34176;PMS7003;20450;49.074;9.158;2024-02-21T09:22:35;3.00;3.00;3.00
34176;PMS7003;20450;49.074;9.158;2024-02-21T09:25:03;1.00;1.00;1.00
34176;PMS7003;20450;49.074;9.158;2024-02-21T09:27:30;4.00;1.00;1.00
34176;PMS7003;20450;49.074;9.158;2024-02-21T09:29:57;3.00;1.00;1.00
34176;PMS7003;20450;49.074;9.158;2024-02-21T09:32:26;5.00;3.00;2.50
34176;PMS7003;20450;49.074;9.158;2024-02-21T09:34:53;1.00;1.00;1.00
34176;PMS7003;20450;49.074;9.158;2024-02-21T09:37:22;2.00;2.00;1.00
34176;PMS7003;20450;49.074;9.158;2024-02-21T09:39:49;1.00;0.00;0.00
34176;PMS7003;20450;49.074;9.158;2024-02-21T09:42:16;1.50;1.00;1.00
34176;PMS7003;20450;49.074;9.158;2024-02-21T09:44:47;4.00;2.00;1.00
34176;PMS7003;20450;49.074;9.158;2024-02-21T09:47:17;3.25;3.00;1.50
34176;PMS7003;20450;49.074;9.158;2024-02-21T09:49:52;6.75;6.00;3.50
34176;PMS7003;20450;49.074;9.158;2024-02-21T09:52:21;6.00;3.00;3.00
34176;PMS7003;20450;49.074;9.158;2024-02-21T09:54:49;7.25;7.25;4.50
34176;PMS7003;20450;49.074;9.158;2024-02-21T09:57:16;15.00;10.50;7.00
34176;PMS7003;20450;49.074;9.158;2024-02-21T09:59:47;5.75;2.00;1.50
34176;PMS7003;20450;49.074;9.158;2024-02-21T10:02:14;1.67;1.67;1.00
34176;PMS7003;20450;49.074;9.158;2024-02-21T10:04:41;1.00;1.00;1.00
34176;PMS7003;20450;49.074;9.158;2024-02-21T10:07:09;1.00;1.00;0.00
34176;PMS7003;20450;49.074;9.158;2024-02-21T10:09:37;3.00;1.00;1.00
34176;PMS7003;20450;49.074;9.158;2024-02-21T10:12:07;1.00;1.00;1.00
34176;PMS7003;20450;49.074;9.158;2024-02-21T10:14:36;4.00;4.00;3.25
34176;PMS7003;20450;49.074;9.158;2024-02-21T10:17:04;1.00;1.00;1.00
34176;PMS7003;20450;49.074;9.158;2024-02-21T10:19:31;2.00;2.00;1.00
34176;PMS7003;20450;49.074;9.158;2024-02-21T10:22:03;0.75;0.75;0.00
34176;PMS7003;20450;49.074;9.158;2024-02-21T10:24:33;6.00;1.00;1.00
34176;PMS7003;20450;49.074;9.158;2024-02-21T10:27:01;1.00;1.00;1.00
34176;PMS7003;20450;49.074;9.158;2024-02-21T10:29:29;0.75;0.75;0.75
34176;PMS7003;20450;49.074;9.158;2024-02-21T10:32:04;3.25;1.00;0.00
34176;PMS7003;20450;49.074;9.158;2024-02-21T10:34:32;1.00;1.00;0.00
34176;PMS7003;20450;49.074;9.158;2024-02-21T10:37:00;1.75;1.50;1.00
34176;PMS7003;20450;49.074;9.158;2024-02-21T10:39:28;0.50;0.50;0.50
34176;PMS7003;20450;49.074;9.158;2024-02-21T10:42:00;5.50;3.75;3.25
34176;PMS7003;20450;49.074;9.158;2024-02-21T10:44:30;1.50;1.50;1.00
34176;PMS7003;20450;49.074;9.158;2024-02-21T10:46:58;1.00;1.00;1.00
34176;PMS7003;20450;49.074;9.158;2024-02-21T10:49:32;3.00;0.75;0.50
34176;PMS7003;20450;49.074;9.158;2024-02-21T10:52:06;2.50;1.00;1.00
34176;PMS7003;20450;49.074;9.158;2024-02-21T10:54:43;0.00;0.00;0.00
34176;PMS7003;20450;49.074;9.158;2024-02-21T10:57:15;0.00;0.00;0.00
34176;PMS7003;20450;49.074;9.158;2024-02-21T10:59:45;1.00;1.00;1.00
34176;PMS7003;20450;49.074;9.158;2024-02-21T11:02:15;1.25;0.00;0.00
34176;PMS7003;20450;49.074;9.158;2024-02-21T11:04:42;3.75;1.50;1.00
34176;PMS7003;20450;49.074;9.158;2024-02-21T11:07:11;3.25;1.00;1.00
34176;PMS7003;20450;49.074;9.158;2024-02-21T11:09:40;1.00;1.00;0.75
34176;PMS7003;20450;49.074;9.158;2024-02-21T11:12:07;8.50;3.00;1.00
34176;PMS7003;20450;49.074;9.158;2024-02-21T11:14:37;1.50;1.50;1.00
34176;PMS7003;20450;49.074;9.158;2024-02-21T11:17:14;2.00;2.00;1.00
34176;PMS7003;20450;49.074;9.158;2024-02-21T11:19:42;3.00;3.00;3.00
34176;PMS7003;20450;49.074;9.158;2024-02-21T11:22:14;2.00;1.00;1.00
34176;PMS7003;20450;49.074;9.158;2024-02-21T11:24:42;0.00;0.00;0.00
34176;PMS7003;20450;49.074;9.158;2024-02-21T11:27:09;1.00;1.00;0.00
34176;PMS7003;20450;49.074;9.158;2024-02-21T11:29:41;2.00;2.00;1.00
34176;PMS7003;20450;49.074;9.158;2024-02-21T11:32:09;3.00;3.00;3.00
34176;PMS7003;20450;49.074;9.158;2024-02-21T11:34:37;1.00;1.00;1.00
34176;PMS7003;20450;49.074;9.158;2024-02-21T11:37:12;1.00;1.00;1.00
34176;PMS7003;20450;49.074;9.158;2024-02-21T11:39:42;1.00;1.00;1.00
34176;PMS7003;20450;49.074;9.158;2024-02-21T11:42:09;1.00;1.00;1.00
34176;PMS7003;20450;49.074;9.158;2024-02-21T11:44:37;3.00;3.00;3.00
34176;PMS7003;20450;49.074;9.158;2024-02-21T11:47:07;3.00;2.50;2.50
34176;PMS7003;20450;49.074;9.158;2024-02-21T11:49:36;2.50;2.50;1.00
34176;PMS7003;20450;49.074;9.158;2024-02-21T11:52:05;0.75;0.75;0.00
34176;PMS7003;20450;49.074;9.158;2024-02-21T11:54:40;2.00;2.00;1.00
34176;PMS7003;20450;49.074;9.158;2024-02-21T11:57:07;1.00;1.00;1.00
34176;PMS7003;20450;49.074;9.158;2024-02-21T11:59:34;2.50;1.00;1.00
34176;PMS7003;20450;49.074;9.158;2024-02-21T12:02:02;3.50;3.25;3.00
34176;PMS7003;20450;49.074;9.158;2024-02-21T12:04:31;2.00;0.50;0.50
34176;PMS7003;20450;49.074;9.158;2024-02-21T12:06:59;2.00;2.00;1.00
34176;PMS7003;20450;49.074;9.158;2024-02-21T12:09:26;3.25;1.00;0.25
34176;PMS7003;20450;49.074;9.158;2024-02-21T12:11:57;6.50;3.50;0.25
34176;PMS7003;20450;49.074;9.158;2024-02-21T12:14:25;0.00;0.00;0.00
34176;PMS7003;20450;49.074;9.158;2024-02-21T12:16:56;0.00;0.00;0.00
34176;PMS7003;20450;49.074;9.158;2024-02-21T12:19:24;1.00;1.00;0.25
34176;PMS7003;20450;49.074;9.158;2024-02-21T12:21:53;0.75;0.75;0.25
34176;PMS7003;20450;49.074;9.158;2024-02-21T12:24:21;0.00;0.00;0.00
34176;PMS7003;20450;49.074;9.158;2024-02-21T12:26:49;0.25;0.25;0.00
34176;PMS7003;20450;49.074;9.158;2024-02-21T12:29:17;2.25;0.75;0.50
34176;PMS7003;20450;49.074;9.158;2024-02-21T12:31:44;1.00;1.00;1.00
34176;PMS7003;20450;49.074;9.158;2024-02-21T12:34:14;2.25;0.25;0.00
34176;PMS7003;20450;49.074;9.158;2024-02-21T12:36:44;3.50;3.50;3.00
34176;PMS7003;20450;49.074;9.158;2024-02-21T12:39:13;0.00;0.00;0.00
34176;PMS7003;20450;49.074;9.158;2024-02-21T12:41:42;2.25;0.00;0.00
34176;PMS7003;20450;49.074;9.158;2024-02-21T12:44:09;0.25;0.25;0.25
34176;PMS7003;20450;49.074;9.158;2024-02-21T12:46:37;4.00;3.00;1.00
34176;PMS7003;20450;49.074;9.158;2024-02-21T12:49:05;2.75;1.25;1.25
34176;PMS7003;20450;49.074;9.158;2024-02-21T12:51:33;4.50;0.75;0.75
34176;PMS7003;20450;49.074;9.158;2024-02-21T12:54:00;3.00;3.00;3.00
34176;PMS7003;20450;49.074;9.158;2024-02-21T12:56:29;1.00;1.00;1.00
34176;PMS7003;20450;49.074;9.158;2024-02-21T12:58:56;1.00;0.00;0.00
34176;PMS7003;20450;49.074;9.158;2024-02-21T13:01:23;0.75;0.00;0.00
34176;PMS7003;20450;49.074;9.158;2024-02-21T13:03:50;1.00;0.00;0.00
34176;PMS7003;20450;49.074;9.158;2024-02-21T13:06:17;0.75;0.75;0.50
34176;PMS7003;20450;49.074;9.158;2024-02-21T13:08:44;1.00;1.00;0.75
34176;PMS7003;20450;49.074;9.158;2024-02-21T13:11:26;3.00;1.50;0.75
34176;PMS7003;20450;49.074;9.158;2024-02-21T13:13:58;0.25;0.25;0.25
34176;PMS7003;20450;49.074;9.158;2024-02-21T13:16:25;3.25;2.50;1.00
34176;PMS7003;20450;49.074;9.158;2024-02-21T13:18:53;1.00;1.00;1.00
34176;PMS7003;20450;49.074;9.158;2024-02-21T13:21:20;4.00;1.00;0.50
34176;PMS7003;20450;49.074;9.158;2024-02-21T13:23:47;0.00;0.00;0.00
34176;PMS7003;20450;49.074;9.158;2024-02-21T13:26:15;3.00;0.00;0.00
34176;PMS7003;20450;49.074;9.158;2024-02-21T13:28:42;0.00;0.00;0.00
34176;PMS7003;20450;49.074;9.158;2024-02-21T13:31:10;0.00;0.00;0.00
34176;PMS7003;20450;49.074;9.158;2024-02-21T13:33:38;1.00;1.00;0.75
34176;PMS7003;20450;49.074;9.158;2024-02-21T13:36:05;0.00;0.00;0.00
34176;PMS7003;20450;49.074;9.158;2024-02-21T13:38:33;0.25;0.25;0.25
34176;PMS7003;20450;49.074;9.158;2024-02-21T13:41:01;0.75;0.75;0.75
34176;PMS7003;20450;49.074;9.158;2024-02-21T13:43:28;1.00;1.00;1.00
34176;PMS7003;20450;49.074;9.158;2024-02-21T13:45:56;3.00;1.25;0.75
34176;PMS7003;20450;49.074;9.158;2024-02-21T13:48:28;1.75;1.00;1.00
34176;PMS7003;20450;49.074;9.158;2024-02-21T13:50:56;0.00;0.00;0.00
34176;PMS7003;20450;49.074;9.158;2024-02-21T13:53:23;1.00;0.00;0.00
34176;PMS7003;20450;49.074;9.158;2024-02-21T13:55:52;0.00;0.00;0.00
34176;PMS7003;20450;49.074;9.158;2024-02-21T13:58:21;3.00;0.25;0.00
34176;PMS7003;20450;49.074;9.158;2024-02-21T14:00:49;1.00;1.00;1.00
34176;PMS7003;20450;49.074;9.158;2024-02-21T14:03:16;0.00;0.00;0.00
34176;PMS7003;20450;49.074;9.158;2024-02-21T14:05:45;2.00;2.00;0.00
34176;PMS7003;20450;49.074;9.158;2024-02-21T14:08:12;1.75;1.75;1.50
34176;PMS7003;20450;49.074;9.158;2024-02-21T14:10:39;0.00;0.00;0.00
34176;PMS7003;20450;49.074;9.158;2024-02-21T14:13:07;0.00;0.00;0.00
34176;PMS7003;20450;49.074;9.158;2024-02-21T14:15:34;0.00;0.00;0.00
34176;PMS7003;20450;49.074;9.158;2024-02-21T14:18:01;1.00;1.00;0.00
34176;PMS7003;20450;49.074;9.158;2024-02-21T14:20:29;0.00;0.00;0.00
34176;PMS7003;20450;49.074;9.158;2024-02-21T14:22:57;3.75;3.25;3.00
34176;PMS7003;20450;49.074;9.158;2024-02-21T14:25:24;0.25;0.25;0.00